sensor_id;sensor_type;location;lat;lon;timestamp;temperature;humidity
24103;DHT22;12278;53.058;9.028;2023-02-03T00:03:42;8.20;99.90
24103;DHT22;12278;53.058;9.028;2023-02-03T00:07:43;8.20;99.90
24103;DHT22;12278;53.058;9.028;2023-02-03T00:11:43;8.20;99.90
24103;DHT22;12278;53.058;9.028;2023-02-03T00:15:44;8.20;99.90
24103;DHT22;12278;53.058;9.028;2023-02-03T00:19:45;8.10;99.90
24103;DHT22;12278;53.058;9.028;2023-02-03T00:23:45;8.20;99.90
24103;DHT22;12278;53.058;9.028;2023-02-03T00:27:46;8.20;99.90
24103;DHT22;12278;53.058;9.028;2023-02-03T00:31:47;8.10;99.90
24103;DHT22;12278;53.058;9.028;2023-02-03T00:35:47;8.20;99.90
24103;DHT22;12278;53.058;9.028;2023-02-03T00:39:49;8.20;99.90
24103;DHT22;12278;53.058;9.028;2023-02-03T00:43:49;8.30;99.90
24103;DHT22;12278;53.058;9.028;2023-02-03T00:47:50;8.30;99.90
24103;DHT22;12278;53.058;9.028;2023-02-03T00:51:52;8.20;99.90
24103;DHT22;12278;53.058;9.028;2023-02-03T00:55:52;8.20;99.90
24103;DHT22;12278;53.058;9.028;2023-02-03T00:59:53;8.20;99.90
24103;DHT22;12278;53.058;9.028;2023-02-03T01:03:55;8.20;99.90
24103;DHT22;12278;53.058;9.028;2023-02-03T01:07:55;8.20;99.90
24103;DHT22;12278;53.058;9.028;2023-02-03T01:11:56;8.20;99.90
24103;DHT22;12278;53.058;9.028;2023-02-03T01:16:08;8.30;99.90
24103;DHT22;12278;53.058;9.028;2023-02-03T01:20:10;8.30;99.90
24103;DHT22;12278;53.058;9.028;2023-02-03T01:24:13;8.40;99.90
24103;DHT22;12278;53.058;9.028;2023-02-03T01:28:14;8.30;99.90
24103;DHT22;12278;53.058;9.028;2023-02-03T01:32:21;8.40;99.90
24103;DHT22;12278;53.058;9.028;2023-02-03T01:36:24;8.40;99.90
24103;DHT22;12278;53.058;9.028;2023-02-03T01:40:25;8.40;99.90
24103;DHT22;12278;53.058;9.028;2023-02-03T01:44:39;8.40;99.90
24103;DHT22;12278;53.058;9.028;2023-02-03T01:48:40;8.50;99.90
24103;DHT22;12278;53.058;9.028;2023-02-03T01:52:42;8.50;99.90
24103;DHT22;12278;53.058;9.028;2023-02-03T01:56:47;8.50;99.90
24103;DHT22;12278;53.058;9.028;2023-02-03T02:00:51;8.50;99.90
24103;DHT22;12278;53.058;9.028;2023-02-03T02:05:05;8.50;99.90
24103;DHT22;12278;53.058;9.028;2023-02-03T02:09:06;8.60;99.90
24103;DHT22;12278;53.058;9.028;2023-02-03T02:13:07;8.60;99.90
24103;DHT22;12278;53.058;9.028;2023-02-03T02:39:09;8.50;99.90
24103;DHT22;12278;53.058;9.028;2023-02-03T02:43:18;8.50;99.90
24103;DHT22;12278;53.058;9.028;2023-02-03T02:47:20;8.60;99.90
24103;DHT22;12278;53.058;9.028;2023-02-03T02:51:22;8.60;99.90
24103;DHT22;12278;53.058;9.028;2023-02-03T02:55:26;8.60;99.90
24103;DHT22;12278;53.058;9.028;2023-02-03T02:59:28;8.60;99.90
24103;DHT22;12278;53.058;9.028;2023-02-03T03:03:29;8.60;99.90
24103;DHT22;12278;53.058;9.028;2023-02-03T03:07:35;8.60;99.90
24103;DHT22;12278;53.058;9.028;2023-02-03T03:11:44;8.70;99.90
24103;DHT22;12278;53.058;9.028;2023-02-03T03:15:46;8.70;99.90
24103;DHT22;12278;53.058;9.028;2023-02-03T03:19:52;8.60;99.90
24103;DHT22;12278;53.058;9.028;2023-02-03T03:23:56;8.70;99.90
24103;DHT22;12278;53.058;9.028;2023-02-03T03:28:05;8.80;99.90
24103;DHT22;12278;53.058;9.028;2023-02-03T03:32:07;8.80;99.90
24103;DHT22;12278;53.058;9.028;2023-02-03T03:36:29;8.80;99.90
24103;DHT22;12278;53.058;9.028;2023-02-03T03:40:38;8.80;99.90
24103;DHT22;12278;53.058;9.028;2023-02-03T03:49:08;8.80;99.90
24103;DHT22;12278;53.058;9.028;2023-02-03T03:53:11;8.80;99.90
24103;DHT22;12278;53.058;9.028;2023-02-03T03:57:42;8.80;99.90
24103;DHT22;12278;53.058;9.028;2023-02-03T04:01:45;8.80;99.90
24103;DHT22;12278;53.058;9.028;2023-02-03T04:05:46;8.90;99.90
24103;DHT22;12278;53.058;9.028;2023-02-03T04:09:47;8.80;99.90
24103;DHT22;12278;53.058;9.028;2023-02-03T04:13:47;8.90;99.90
24103;DHT22;12278;53.058;9.028;2023-02-03T04:17:48;8.90;99.90
24103;DHT22;12278;53.058;9.028;2023-02-03T04:21:49;8.80;99.90
24103;DHT22;12278;53.058;9.028;2023-02-03T04:25:50;8.80;99.90
24103;DHT22;12278;53.058;9.028;2023-02-03T04:29:50;8.70;99.90
24103;DHT22;12278;53.058;9.028;2023-02-03T04:33:51;8.60;99.90
24103;DHT22;12278;53.058;9.028;2023-02-03T04:37:52;8.60;99.90
24103;DHT22;12278;53.058;9.028;2023-02-03T04:41:52;8.50;99.90
24103;DHT22;12278;53.058;9.028;2023-02-03T04:45:53;8.50;99.90
24103;DHT22;12278;53.058;9.028;2023-02-03T04:49:54;8.40;99.90
24103;DHT22;12278;53.058;9.028;2023-02-03T04:53:56;8.40;99.90
24103;DHT22;12278;53.058;9.028;2023-02-03T04:57:57;8.40;99.90
24103;DHT22;12278;53.058;9.028;2023-02-03T05:02:01;8.40;99.90
24103;DHT22;12278;53.058;9.028;2023-02-03T05:06:03;8.40;99.90
24103;DHT22;12278;53.058;9.028;2023-02-03T05:10:05;8.40;99.90
24103;DHT22;12278;53.058;9.028;2023-02-03T05:14:18;8.30;99.90
24103;DHT22;12278;53.058;9.028;2023-02-03T05:18:18;8.40;99.90
24103;DHT22;12278;53.058;9.028;2023-02-03T05:22:19;8.50;99.90
24103;DHT22;12278;53.058;9.028;2023-02-03T05:26:20;8.60;99.90
24103;DHT22;12278;53.058;9.028;2023-02-03T05:30:21;8.70;99.90
24103;DHT22;12278;53.058;9.028;2023-02-03T05:34:21;8.70;99.90
24103;DHT22;12278;53.058;9.028;2023-02-03T05:38:23;8.80;99.90
24103;DHT22;12278;53.058;9.028;2023-02-03T05:42:31;8.80;99.90
24103;DHT22;12278;53.058;9.028;2023-02-03T05:46:31;8.70;99.90
24103;DHT22;12278;53.058;9.028;2023-02-03T05:50:33;8.70;99.90
24103;DHT22;12278;53.058;9.028;2023-02-03T05:54:47;8.60;99.90
24103;DHT22;12278;53.058;9.028;2023-02-03T05:59:23;8.50;99.90
24103;DHT22;12278;53.058;9.028;2023-02-03T06:03:23;8.40;99.90
24103;DHT22;12278;53.058;9.028;2023-02-03T06:07:27;8.30;99.90
24103;DHT22;12278;53.058;9.028;2023-02-03T06:11:28;8.30;99.90
24103;DHT22;12278;53.058;9.028;2023-02-03T06:15:28;8.30;99.90
24103;DHT22;12278;53.058;9.028;2023-02-03T06:19:29;8.30;99.90
24103;DHT22;12278;53.058;9.028;2023-02-03T06:23:30;8.20;99.90
24103;DHT22;12278;53.058;9.028;2023-02-03T06:27:31;8.20;99.90
24103;DHT22;12278;53.058;9.028;2023-02-03T06:31:32;8.10;99.90
24103;DHT22;12278;53.058;9.028;2023-02-03T06:35:33;8.10;99.90
24103;DHT22;12278;53.058;9.028;2023-02-03T06:39:33;8.10;99.90
24103;DHT22;12278;53.058;9.028;2023-02-03T06:43:34;8.00;99.90
24103;DHT22;12278;53.058;9.028;2023-02-03T06:47:39;8.10;99.90
24103;DHT22;12278;53.058;9.028;2023-02-03T06:51:39;8.10;99.90
24103;DHT22;12278;53.058;9.028;2023-02-03T06:55:40;8.10;99.90
24103;DHT22;12278;53.058;9.028;2023-02-03T06:59:40;8.10;99.90
24103;DHT22;12278;53.058;9.028;2023-02-03T07:03:41;8.10;99.90
24103;DHT22;12278;53.058;9.028;2023-02-03T07:07:42;8.30;99.90
24103;DHT22;12278;53.058;9.028;2023-02-03T07:11:42;8.30;99.90
24103;DHT22;12278;53.058;9.028;2023-02-03T07:15:43;8.50;99.90
24103;DHT22;12278;53.058;9.028;2023-02-03T07:19:45;8.60;99.90
24103;DHT22;12278;53.058;9.028;2023-02-03T07:23:46;8.70;99.90
24103;DHT22;12278;53.058;9.028;2023-02-03T07:27:47;8.80;99.90
24103;DHT22;12278;53.058;9.028;2023-02-03T07:31:48;8.90;99.90
24103;DHT22;12278;53.058;9.028;2023-02-03T07:35:59;8.90;99.90
24103;DHT22;12278;53.058;9.028;2023-02-03T07:39:59;9.00;99.90
24103;DHT22;12278;53.058;9.028;2023-02-03T07:44:00;9.10;99.90
24103;DHT22;12278;53.058;9.028;2023-02-03T07:48:01;9.10;99.90
24103;DHT22;12278;53.058;9.028;2023-02-03T07:52:01;9.10;99.90
24103;DHT22;12278;53.058;9.028;2023-02-03T07:56:03;9.20;99.90
24103;DHT22;12278;53.058;9.028;2023-02-03T08:00:04;9.20;99.90
24103;DHT22;12278;53.058;9.028;2023-02-03T08:04:05;9.30;99.90
24103;DHT22;12278;53.058;9.028;2023-02-03T08:08:06;9.30;99.90
24103;DHT22;12278;53.058;9.028;2023-02-03T08:12:06;9.40;99.90
24103;DHT22;12278;53.058;9.028;2023-02-03T08:16:07;9.50;99.90
24103;DHT22;12278;53.058;9.028;2023-02-03T08:20:09;9.50;99.90
24103;DHT22;12278;53.058;9.028;2023-02-03T08:24:10;9.50;99.90
24103;DHT22;12278;53.058;9.028;2023-02-03T08:28:10;9.60;99.90
24103;DHT22;12278;53.058;9.028;2023-02-03T08:32:14;9.50;99.90
24103;DHT22;12278;53.058;9.028;2023-02-03T08:36:14;9.60;99.90
24103;DHT22;12278;53.058;9.028;2023-02-03T08:40:16;9.60;99.90
24103;DHT22;12278;53.058;9.028;2023-02-03T08:44:17;9.70;99.90
24103;DHT22;12278;53.058;9.028;2023-02-03T08:48:19;9.70;99.90
24103;DHT22;12278;53.058;9.028;2023-02-03T08:52:20;9.70;99.90
24103;DHT22;12278;53.058;9.028;2023-02-03T08:56:20;9.70;99.90
24103;DHT22;12278;53.058;9.028;2023-02-03T09:00:21;9.80;99.90
24103;DHT22;12278;53.058;9.028;2023-02-03T09:04:22;9.80;99.90
24103;DHT22;12278;53.058;9.028;2023-02-03T09:08:24;9.70;99.90
24103;DHT22;12278;53.058;9.028;2023-02-03T09:12:24;9.60;99.90
24103;DHT22;12278;53.058;9.028;2023-02-03T09:16:25;9.50;99.90
24103;DHT22;12278;53.058;9.028;2023-02-03T09:20:26;9.00;99.90
24103;DHT22;12278;53.058;9.028;2023-02-03T09:24:26;8.40;99.90
24103;DHT22;12278;53.058;9.028;2023-02-03T09:28:29;8.40;99.90
24103;DHT22;12278;53.058;9.028;2023-02-03T09:32:30;8.60;99.90
24103;DHT22;12278;53.058;9.028;2023-02-03T09:36:31;8.60;99.90
24103;DHT22;12278;53.058;9.028;2023-02-03T09:40:33;8.70;99.90
24103;DHT22;12278;53.058;9.028;2023-02-03T09:48:52;8.80;99.90
24103;DHT22;12278;53.058;9.028;2023-02-03T09:53:07;8.90;99.90
24103;DHT22;12278;53.058;9.028;2023-02-03T09:57:22;9.00;99.90
24103;DHT22;12278;53.058;9.028;2023-02-03T10:01:26;9.30;99.90
24103;DHT22;12278;53.058;9.028;2023-02-03T10:10:03;9.50;99.90
24103;DHT22;12278;53.058;9.028;2023-02-03T10:18:37;9.80;99.90
24103;DHT22;12278;53.058;9.028;2023-02-03T10:22:43;9.90;99.90
24103;DHT22;12278;53.058;9.028;2023-02-03T10:26:45;10.20;99.90
24103;DHT22;12278;53.058;9.028;2023-02-03T10:30:53;10.40;99.90
24103;DHT22;12278;53.058;9.028;2023-02-03T10:34:56;10.60;99.90
24103;DHT22;12278;53.058;9.028;2023-02-03T10:43:08;10.50;99.90
24103;DHT22;12278;53.058;9.028;2023-02-03T10:47:30;10.70;99.90
24103;DHT22;12278;53.058;9.028;2023-02-03T10:55:46;10.60;99.90
24103;DHT22;12278;53.058;9.028;2023-02-03T10:59:49;10.20;99.90
24103;DHT22;12278;53.058;9.028;2023-02-03T11:04:01;10.20;99.90
24103;DHT22;12278;53.058;9.028;2023-02-03T11:08:14;10.20;99.90
24103;DHT22;12278;53.058;9.028;2023-02-03T11:12:19;10.20;99.90
24103;DHT22;12278;53.058;9.028;2023-02-03T11:16:20;10.30;99.90
24103;DHT22;12278;53.058;9.028;2023-02-03T11:20:21;10.30;99.90
24103;DHT22;12278;53.058;9.028;2023-02-03T11:24:35;10.20;99.90
24103;DHT22;12278;53.058;9.028;2023-02-03T11:28:41;10.30;99.90
24103;DHT22;12278;53.058;9.028;2023-02-03T11:32:43;10.10;99.90
24103;DHT22;12278;53.058;9.028;2023-02-03T11:36:45;10.10;99.90
24103;DHT22;12278;53.058;9.028;2023-02-03T11:40:58;10.10;99.90
24103;DHT22;12278;53.058;9.028;2023-02-03T11:50:04;10.40;99.90
24103;DHT22;12278;53.058;9.028;2023-02-03T12:11:36;10.10;99.90
24103;DHT22;12278;53.058;9.028;2023-02-03T12:24:59;10.20;99.90
24103;DHT22;12278;53.058;9.028;2023-02-03T12:29:21;10.20;99.90
24103;DHT22;12278;53.058;9.028;2023-02-03T12:33:46;10.10;99.90
24103;DHT22;12278;53.058;9.028;2023-02-03T12:38:01;10.10;99.90
24103;DHT22;12278;53.058;9.028;2023-02-03T12:42:24;10.00;99.90
24103;DHT22;12278;53.058;9.028;2023-02-03T12:51:02;9.90;99.90
24103;DHT22;12278;53.058;9.028;2023-02-03T12:59:22;9.90;99.90
24103;DHT22;12278;53.058;9.028;2023-02-03T13:08:05;9.80;99.90
24103;DHT22;12278;53.058;9.028;2023-02-03T13:16:17;9.70;99.90
24103;DHT22;12278;53.058;9.028;2023-02-03T13:20:23;9.70;99.90
24103;DHT22;12278;53.058;9.028;2023-02-03T13:24:26;9.80;99.90
24103;DHT22;12278;53.058;9.028;2023-02-03T13:41:41;9.50;99.90
24103;DHT22;12278;53.058;9.028;2023-02-03T13:45:49;9.50;99.90
24103;DHT22;12278;53.058;9.028;2023-02-03T13:49:56;9.40;99.90
24103;DHT22;12278;53.058;9.028;2023-02-03T13:54:16;9.40;99.90
24103;DHT22;12278;53.058;9.028;2023-02-03T13:58:27;9.40;99.90
24103;DHT22;12278;53.058;9.028;2023-02-03T14:02:43;9.30;99.90
24103;DHT22;12278;53.058;9.028;2023-02-03T14:15:33;9.20;99.90
24103;DHT22;12278;53.058;9.028;2023-02-03T14:23:58;9.20;99.90
24103;DHT22;12278;53.058;9.028;2023-02-03T14:28:05;9.10;99.90
24103;DHT22;12278;53.058;9.028;2023-02-03T14:32:08;9.10;99.90
24103;DHT22;12278;53.058;9.028;2023-02-03T14:36:29;9.10;99.90
24103;DHT22;12278;53.058;9.028;2023-02-03T15:05:55;8.70;99.90
24103;DHT22;12278;53.058;9.028;2023-02-03T15:09:56;8.70;99.90
24103;DHT22;12278;53.058;9.028;2023-02-03T15:14:20;8.70;99.90
24103;DHT22;12278;53.058;9.028;2023-02-03T15:18:43;8.70;99.90
24103;DHT22;12278;53.058;9.028;2023-02-03T15:22:55;8.60;99.90
24103;DHT22;12278;53.058;9.028;2023-02-03T15:26:59;8.60;99.90
24103;DHT22;12278;53.058;9.028;2023-02-03T15:35:36;8.60;99.90
24103;DHT22;12278;53.058;9.028;2023-02-03T15:44:02;8.60;99.90
24103;DHT22;12278;53.058;9.028;2023-02-03T15:48:15;8.50;99.90
24103;DHT22;12278;53.058;9.028;2023-02-03T15:52:26;8.50;99.90
24103;DHT22;12278;53.058;9.028;2023-02-03T15:56:48;8.50;99.90
24103;DHT22;12278;53.058;9.028;2023-02-03T16:00:59;8.50;99.90
24103;DHT22;12278;53.058;9.028;2023-02-03T16:05:05;8.50;99.90
24103;DHT22;12278;53.058;9.028;2023-02-03T16:13:32;8.50;99.90
24103;DHT22;12278;53.058;9.028;2023-02-03T16:17:36;8.40;99.90
24103;DHT22;12278;53.058;9.028;2023-02-03T16:21:54;8.40;99.90
24103;DHT22;12278;53.058;9.028;2023-02-03T16:26:02;8.40;99.90
24103;DHT22;12278;53.058;9.028;2023-02-03T16:34:31;8.50;99.90
24103;DHT22;12278;53.058;9.028;2023-02-03T16:38:52;8.40;99.90
24103;DHT22;12278;53.058;9.028;2023-02-03T16:43:13;8.40;99.90
24103;DHT22;12278;53.058;9.028;2023-02-03T16:47:37;8.40;99.90
24103;DHT22;12278;53.058;9.028;2023-02-03T16:51:59;8.30;99.90
24103;DHT22;12278;53.058;9.028;2023-02-03T16:56:09;8.30;99.90
24103;DHT22;12278;53.058;9.028;2023-02-03T17:00:27;8.30;99.90
24103;DHT22;12278;53.058;9.028;2023-02-03T17:04:36;8.30;99.90
24103;DHT22;12278;53.058;9.028;2023-02-03T17:08:43;8.30;99.90
24103;DHT22;12278;53.058;9.028;2023-02-03T17:12:53;8.20;99.90
24103;DHT22;12278;53.058;9.028;2023-02-03T17:16:54;8.30;99.90
24103;DHT22;12278;53.058;9.028;2023-02-03T17:21:10;8.20;99.90
24103;DHT22;12278;53.058;9.028;2023-02-03T17:25:13;8.20;99.90
24103;DHT22;12278;53.058;9.028;2023-02-03T17:29:23;8.20;99.90
24103;DHT22;12278;53.058;9.028;2023-02-03T17:33:27;8.20;99.90
24103;DHT22;12278;53.058;9.028;2023-02-03T17:37:35;8.10;99.90
24103;DHT22;12278;53.058;9.028;2023-02-03T17:41:38;7.90;99.90
24103;DHT22;12278;53.058;9.028;2023-02-03T17:45:40;7.90;99.90
24103;DHT22;12278;53.058;9.028;2023-02-03T17:49:53;7.70;99.90
24103;DHT22;12278;53.058;9.028;2023-02-03T17:54:22;7.50;99.90
24103;DHT22;12278;53.058;9.028;2023-02-03T17:58:28;7.40;99.90
24103;DHT22;12278;53.058;9.028;2023-02-03T18:02:29;7.30;99.90
24103;DHT22;12278;53.058;9.028;2023-02-03T18:06:37;7.30;99.90
24103;DHT22;12278;53.058;9.028;2023-02-03T18:10:38;7.40;99.90
24103;DHT22;12278;53.058;9.028;2023-02-03T18:14:42;7.50;99.90
24103;DHT22;12278;53.058;9.028;2023-02-03T18:19:04;7.50;99.90
24103;DHT22;12278;53.058;9.028;2023-02-03T18:23:06;7.50;99.90
24103;DHT22;12278;53.058;9.028;2023-02-03T18:27:12;7.50;99.90
24103;DHT22;12278;53.058;9.028;2023-02-03T18:31:23;7.60;99.90
24103;DHT22;12278;53.058;9.028;2023-02-03T18:35:24;7.60;99.90
24103;DHT22;12278;53.058;9.028;2023-02-03T18:39:25;7.60;99.90
24103;DHT22;12278;53.058;9.028;2023-02-03T18:43:39;7.50;99.90
24103;DHT22;12278;53.058;9.028;2023-02-03T18:47:40;7.60;99.90
24103;DHT22;12278;53.058;9.028;2023-02-03T18:51:54;7.60;99.90
24103;DHT22;12278;53.058;9.028;2023-02-03T18:55:57;7.70;99.90
24103;DHT22;12278;53.058;9.028;2023-02-03T19:00:03;7.70;99.90
24103;DHT22;12278;53.058;9.028;2023-02-03T19:04:04;7.70;99.90
24103;DHT22;12278;53.058;9.028;2023-02-03T19:08:05;7.70;99.90
24103;DHT22;12278;53.058;9.028;2023-02-03T19:12:07;7.70;99.90
24103;DHT22;12278;53.058;9.028;2023-02-03T19:16:34;7.70;99.90
24103;DHT22;12278;53.058;9.028;2023-02-03T19:20:35;7.70;99.90
24103;DHT22;12278;53.058;9.028;2023-02-03T19:24:39;7.70;99.90
24103;DHT22;12278;53.058;9.028;2023-02-03T19:28:39;7.70;99.90
24103;DHT22;12278;53.058;9.028;2023-02-03T19:32:58;7.70;99.90
24103;DHT22;12278;53.058;9.028;2023-02-03T19:36:58;7.70;99.90
24103;DHT22;12278;53.058;9.028;2023-02-03T19:40:59;7.70;99.90
24103;DHT22;12278;53.058;9.028;2023-02-03T19:45:04;7.70;99.90
24103;DHT22;12278;53.058;9.028;2023-02-03T19:49:05;7.70;99.90
24103;DHT22;12278;53.058;9.028;2023-02-03T19:53:09;7.70;99.90
24103;DHT22;12278;53.058;9.028;2023-02-03T19:57:10;7.70;99.90
24103;DHT22;12278;53.058;9.028;2023-02-03T20:01:10;7.70;99.90
24103;DHT22;12278;53.058;9.028;2023-02-03T20:05:28;7.80;99.90
24103;DHT22;12278;53.058;9.028;2023-02-03T20:09:29;7.80;99.90
24103;DHT22;12278;53.058;9.028;2023-02-03T20:13:46;7.70;99.90
24103;DHT22;12278;53.058;9.028;2023-02-03T20:17:47;7.70;99.90
24103;DHT22;12278;53.058;9.028;2023-02-03T20:21:47;7.80;99.90
24103;DHT22;12278;53.058;9.028;2023-02-03T20:25:49;7.80;99.90
24103;DHT22;12278;53.058;9.028;2023-02-03T20:29:50;7.80;99.90
24103;DHT22;12278;53.058;9.028;2023-02-03T20:33:51;7.80;99.90
24103;DHT22;12278;53.058;9.028;2023-02-03T20:37:52;7.80;99.90
24103;DHT22;12278;53.058;9.028;2023-02-03T20:41:53;7.80;99.90
24103;DHT22;12278;53.058;9.028;2023-02-03T20:46:01;7.80;99.90
24103;DHT22;12278;53.058;9.028;2023-02-03T20:50:02;7.70;99.90
24103;DHT22;12278;53.058;9.028;2023-02-03T20:58:42;7.70;99.90
24103;DHT22;12278;53.058;9.028;2023-02-03T21:02:44;7.70;99.90
24103;DHT22;12278;53.058;9.028;2023-02-03T21:07:15;7.70;99.90
24103;DHT22;12278;53.058;9.028;2023-02-03T21:11:19;7.70;99.90
24103;DHT22;12278;53.058;9.028;2023-02-03T21:15:26;7.60;99.90
24103;DHT22;12278;53.058;9.028;2023-02-03T21:19:36;7.60;99.90
24103;DHT22;12278;53.058;9.028;2023-02-03T21:23:38;7.70;99.90
24103;DHT22;12278;53.058;9.028;2023-02-03T21:27:44;7.60;99.90
24103;DHT22;12278;53.058;9.028;2023-02-03T21:31:46;7.60;99.90
24103;DHT22;12278;53.058;9.028;2023-02-03T21:35:46;7.60;99.90
24103;DHT22;12278;53.058;9.028;2023-02-03T21:39:47;7.60;99.90
24103;DHT22;12278;53.058;9.028;2023-02-03T21:43:54;7.60;99.90
24103;DHT22;12278;53.058;9.028;2023-02-03T21:47:55;7.50;99.90
24103;DHT22;12278;53.058;9.028;2023-02-03T21:51:58;7.50;99.90
24103;DHT22;12278;53.058;9.028;2023-02-03T21:56:21;7.40;99.90
24103;DHT22;12278;53.058;9.028;2023-02-03T22:00:41;7.40;99.90
24103;DHT22;12278;53.058;9.028;2023-02-03T22:04:56;7.40;99.90
24103;DHT22;12278;53.058;9.028;2023-02-03T22:08:57;7.40;99.90
24103;DHT22;12278;53.058;9.028;2023-02-03T22:12:57;7.30;99.90
24103;DHT22;12278;53.058;9.028;2023-02-03T22:16:58;7.10;99.90
24103;DHT22;12278;53.058;9.028;2023-02-03T22:21:00;7.00;99.90
24103;DHT22;12278;53.058;9.028;2023-02-03T22:25:02;6.90;99.90
24103;DHT22;12278;53.058;9.028;2023-02-03T22:29:03;6.90;99.90
24103;DHT22;12278;53.058;9.028;2023-02-03T22:33:05;6.90;99.90
24103;DHT22;12278;53.058;9.028;2023-02-03T22:37:05;6.80;99.90
24103;DHT22;12278;53.058;9.028;2023-02-03T22:41:08;6.80;99.90
24103;DHT22;12278;53.058;9.028;2023-02-03T22:45:12;6.80;99.90
24103;DHT22;12278;53.058;9.028;2023-02-03T22:49:12;6.70;99.90
24103;DHT22;12278;53.058;9.028;2023-02-03T22:53:13;6.80;99.90
24103;DHT22;12278;53.058;9.028;2023-02-03T22:57:14;6.70;99.90
24103;DHT22;12278;53.058;9.028;2023-02-03T23:01:15;6.60;99.90
24103;DHT22;12278;53.058;9.028;2023-02-03T23:05:16;6.60;99.90
24103;DHT22;12278;53.058;9.028;2023-02-03T23:09:17;6.50;99.90
24103;DHT22;12278;53.058;9.028;2023-02-03T23:13:50;6.40;99.90
24103;DHT22;12278;53.058;9.028;2023-02-03T23:17:50;6.30;99.90
24103;DHT22;12278;53.058;9.028;2023-02-03T23:21:51;6.30;99.90
24103;DHT22;12278;53.058;9.028;2023-02-03T23:25:52;6.20;99.90
24103;DHT22;12278;53.058;9.028;2023-02-03T23:29:53;6.00;99.90
24103;DHT22;12278;53.058;9.028;2023-02-03T23:33:54;5.90;99.90
24103;DHT22;12278;53.058;9.028;2023-02-03T23:38:14;5.80;99.90
24103;DHT22;12278;53.058;9.028;2023-02-03T23:42:15;5.70;99.90
24103;DHT22;12278;53.058;9.028;2023-02-03T23:46:16;5.70;99.90
24103;DHT22;12278;53.058;9.028;2023-02-03T23:50:17;5.70;99.90
24103;DHT22;12278;53.058;9.028;2023-02-03T23:54:18;5.50;99.90
24103;DHT22;12278;53.058;9.028;2023-02-03T23:58:18;5.50;99.90
